Satsuki — JD3997 — position and weather

sailwx.info

Track history (hours):
 
Tides and Currents Weather Stations Pressure Air Temp Water Temp Dewpoint Dewpoint Depression Visibility Wind Speed Wind Dir Waves Ship Positions

Satsuki

Last reported at 2018-May-20 17:48 UTC. Time now 2018-May-21 12:39 UTC.
Position N 33°51' E 135°03'.

Length 64 m; draft 4.4 m.

Type: Tanker. MMSI: 431007429.

Date/timePositionNaut miles runAvg speedWind from/ knotsBaromVisibWave heightAir tempDewpointWater temp
2018-May-20 17:48N 33°51' E 135°03'411.5
2018-May-20 17:30N 33°54' E 135°01'611.9
2018-May-20 17:00N 33°59' E 135°00'611.4
2018-May-20 16:30N 34°05' E 134°60'611.2
2018-May-20 16:00N 34°11' E 134°59'510.5
2018-May-20 15:30N 34°16' E 134°59'4 8.4
2018-May-20 15:00N 34°20' E 134°60'510.4
2018-May-20 14:30N 34°25' E 135°01'510.3
2018-May-20 14:00N 34°30' E 135°02'5 9.5
2018-May-20 13:30N 34°35' E 135°03'8 7.1
2018-May-20 12:22N 34°34' E 134°53'510.8
2018-May-20 11:57N 34°33' E 134°48'511.4
2018-May-20 11:29N 34°31' E 134°42'611.9
2018-May-20 11:00N 34°29' E 134°35'612.0
2018-May-20 10:30N 34°26' E 134°29'9 0.3
2018-May-19 01:34N 34°23' E 134°18'211.4
2018-May-19 01:25N 34°22' E 134°20'511.2
2018-May-19 01:01N 34°21' E 134°25'711.1
2018-May-19 00:22N 34°18' E 134°33'711.0
2018-May-18 23:45N 34°14' E 134°39'411.0
2018-May-18 23:23N 34°10' E 134°42'510.6
2018-May-18 22:55N 34°07' E 134°46'410.0
2018-May-18 22:31N 34°03' E 134°49'6 9.9
2018-May-18 21:52N 33°59' E 134°54'3 9.4
2018-May-18 21:31N 33°56' E 134°57'5 9.2
2018-May-18 21:00N 33°53' E 135°00'  
2018-May-15 15:04N 34°47' E 139°08'111.4
2018-May-15 15:00N 34°48' E 139°09'611.5
2018-May-15 14:29N 34°53' E 139°13'510.9
2018-May-15 14:00N 34°56' E 139°18'5 9.7
2018-May-15 13:30N 34°59' E 139°23'510.0
2018-May-15 13:00N 35°01' E 139°28'510.4
2018-May-15 12:31N 35°04' E 139°33'611.4
2018-May-15 12:00N 35°06' E 139°40'611.2
2018-May-15 11:30N 35°10' E 139°45'611.2
2018-May-15 11:01N 35°16' E 139°46'612.1
2018-May-15 10:31N 35°21' E 139°42'510.8
2018-May-15 10:00N 35°26' E 139°45'611.1
2018-May-15 09:30N 35°29' E 139°51'610.9
2018-May-15 09:00N 35°31' E 139°57'5 9.2
2018-May-15 08:30N 35°30' E 140°02'0 0.0
2018-May-15 08:00N 35°30' E 140°02'0 0.0
2018-May-15 06:12N 35°30' E 140°02'0 0.7
2018-May-15 06:00N 35°31' E 140°03'1 2.6
2018-May-15 05:30N 35°31' E 140°01'1 2.9
2018-May-15 05:00N 35°31' E 139°59'4 8.1
2018-May-15 04:30N 35°29' E 139°55'0 0.1
2018-May-15 03:55N 35°29' E 139°55'0 0.0
2018-May-15 03:28N 35°29' E 139°55'0 0.0
2018-May-15 02:49N 35°29' E 139°55'0 0.1
2018-May-15 02:28N 35°29' E 139°55'0 0.1
2018-May-15 01:58N 35°29' E 139°55'0 0.0
2018-May-15 01:19N 35°29' E 139°55'0 0.0
2018-May-15 00:52N 35°29' E 139°55'0 0.0
2018-May-15 00:19N 35°29' E 139°55'0 0.0
2018-May-14 23:58N 35°29' E 139°55'0 0.0
2018-May-14 23:25N 35°29' E 139°55'0 0.0
2018-May-14 22:58N 35°29' E 139°55'0 0.0
2018-May-14 22:28N 35°29' E 139°55'0 0.0
2018-May-14 21:55N 35°29' E 139°55'0 0.0
2018-May-14 21:22N 35°29' E 139°55'0 0.0
2018-May-14 20:58N 35°29' E 139°55'0 0.0
2018-May-14 20:28N 35°29' E 139°55'0 0.1
2018-May-14 19:49N 35°29' E 139°55'0 0.0
2018-May-14 19:28N 35°29' E 139°55'0 0.1
2018-May-14 18:58N 35°29' E 139°55'0 0.0
2018-May-14 18:25N 35°29' E 139°55'0 0.0
2018-May-14 17:52N 35°29' E 139°55'0 0.0
2018-May-14 17:28N 35°29' E 139°55'0 0.0
2018-May-14 16:55N 35°29' E 139°55'0 0.0
2018-May-14 16:25N 35°29' E 139°55'0 0.0
2018-May-14 15:58N 35°29' E 139°55'0 0.0
2018-May-14 15:28N 35°29' E 139°55'0 0.0
2018-May-14 14:58N 35°29' E 139°55'0 0.0
2018-May-14 14:28N 35°29' E 139°55'0 0.1
2018-May-14 13:58N 35°29' E 139°55'0 0.0
2018-May-14 13:28N 35°29' E 139°55'0 0.1
2018-May-14 12:58N 35°29' E 139°55'2 4.8
2018-May-14 12:30N 35°29' E 139°52'510.8
2018-May-14 12:01N 35°25' E 139°47'510.8
2018-May-14 11:30N 35°20' E 139°44'5 9.7
2018-May-14 11:00N 35°16' E 139°47'510.7
2018-May-14 10:30N 35°10' E 139°47'612.0
2018-May-14 10:00N 35°05' E 139°45'611.5
2018-May-14 09:30N 34°59' E 139°44'5 9.4
2018-May-14 09:00N 34°54' E 139°46'13 9.9
2018-May-14 07:40N 34°56' E 140°02'311.6
2018-May-14 07:22N 34°58' E 140°06'27 0.7
2018-May-12 17:57N 35°15' E 140°32'614.0
2018-May-12 17:29N 35°10' E 140°27'814.1
2018-May-12 16:55N 35°05' E 140°19'612.8
2018-May-12 16:29N 35°01' E 140°14'612.5
2018-May-12 16:00N 34°59' E 140°07'612.8
2018-May-12 15:30N 34°55' E 140°01'812.4
2018-May-12 14:51N 34°51' E 139°52'411.9
2018-May-12 14:30N 34°52' E 139°47'612.9
2018-May-12 14:00N 34°58' E 139°43'611.7
2018-May-12 13:30N 35°03' E 139°45'611.5
2018-May-12 13:00N 35°09' E 139°46'611.3
2018-May-12 12:30N 35°15' E 139°46'611.6
2018-May-12 12:00N 35°20' E 139°43'611.1
2018-May-12 11:30N 35°25' E 139°44'611.5
2018-May-12 11:00N 35°28' E 139°50'510.8
2018-May-12 10:30N 35°30' E 139°56'5 9.7
2018-May-12 10:00N 35°30' E 140°02'0 0.0
2018-May-12 09:29N 35°30' E 140°02'0 0.0
2018-May-12 04:17N 35°30' E 140°02'0 0.5
2018-May-12 04:00N 35°30' E 140°02'2 3.1
2018-May-12 03:30N 35°30' E 139°60'2 3.5
2018-May-12 02:59N 35°28' E 140°01'0 0.0
2018-May-12 02:30N 35°28' E 140°01'0 0.0
2018-May-12 01:59N 35°28' E 140°01'0 0.0
2018-May-12 01:29N 35°28' E 140°01'0 0.0
2018-May-12 00:57N 35°28' E 140°01'0 0.0
2018-May-12 00:30N 35°28' E 140°01'0 0.0
2018-May-11 23:59N 35°28' E 140°01'0 0.0
2018-May-11 23:30N 35°28' E 140°01'2 4.1
2018-May-11 23:00N 35°30' E 139°59'3 4.8
2018-May-11 22:27N 35°29' E 139°56'0 0.0
2018-May-11 21:54N 35°29' E 139°56'0 0.0
2018-May-11 21:30N 35°29' E 139°56'0 0.0
2018-May-11 21:00N 35°29' E 139°56'0 0.0
2018-May-11 20:27N 35°29' E 139°56'0 0.0
2018-May-11 20:00N 35°29' E 139°56'0 0.0
2018-May-11 19:30N 35°29' E 139°56'0 0.1
2018-May-11 19:00N 35°29' E 139°56'0 0.0
2018-May-11 18:30N 35°29' E 139°56'0 0.0
2018-May-11 17:57N 35°29' E 139°56'0 0.0
2018-May-11 17:27N 35°29' E 139°56'0 0.0
2018-May-11 16:57N 35°29' E 139°56'0 0.0
2018-May-11 16:27N 35°29' E 139°56'0 0.0
2018-May-11 15:51N 35°29' E 139°56'0 0.0
2018-May-11 15:30N 35°29' E 139°56'0 0.0
2018-May-11 15:00N 35°29' E 139°56'0 0.0
2018-May-11 14:30N 35°29' E 139°56'0 0.0
2018-May-11 14:00N 35°29' E 139°56'0 0.0
2018-May-11 13:27N 35°29' E 139°56'0 0.0
2018-May-11 12:57N 35°29' E 139°56'0 0.1
2018-May-11 12:30N 35°29' E 139°56'0 0.1
2018-May-11 12:00N 35°29' E 139°56'0 0.1
2018-May-11 11:27N 35°29' E 139°56'0 0.0
2018-May-11 11:00N 35°29' E 139°56'0 0.0
2018-May-11 10:24N 35°29' E 139°56'0 0.0
2018-May-11 09:57N 35°29' E 139°56'0 0.0
2018-May-11 09:30N 35°29' E 139°56'0 0.0
2018-May-11 09:00N 35°29' E 139°56'0 0.0
2018-May-11 08:18N 35°29' E 139°56'0 0.0
2018-May-11 08:00N 35°29' E 139°56'0 0.0
2018-May-11 07:30N 35°29' E 139°56'0 0.0
2018-May-11 06:57N 35°29' E 139°56'0 0.0
2018-May-11 06:27N 35°29' E 139°56'0 0.0
2018-May-11 05:51N 35°29' E 139°56'0 0.0
2018-May-11 05:30N 35°29' E 139°56'2 4.2
2018-May-11 05:00N 35°30' E 139°53'611.8
2018-May-11 04:30N 35°31' E 139°46'1 2.5
2018-May-11 04:00N 35°32' E 139°45'0 0.0
2018-May-11 03:30N 35°32' E 139°45'0 0.0
2018-May-11 02:57N 35°32' E 139°45'0 0.0
2018-May-11 02:24N 35°32' E 139°45'0 0.0
2018-May-11 02:00N 35°32' E 139°45'0 0.0
2018-May-11 01:30N 35°32' E 139°45'0 0.0
2018-May-11 00:57N 35°32' E 139°45'0 0.0
2018-May-11 00:15N 35°32' E 139°45'0 0.0
2018-May-11 00:00N 35°32' E 139°45'0 0.0
2018-May-10 23:30N 35°32' E 139°45'1 2.4
2018-May-10 23:00N 35°31' E 139°46'3 5.8
2018-May-10 22:30N 35°29' E 139°49'0 0.0
2018-May-10 22:00N 35°29' E 139°49'0 0.0
2018-May-10 21:30N 35°29' E 139°49'0 0.0
2018-May-10 20:57N 35°29' E 139°49'0 0.0
2018-May-10 20:30N 35°29' E 139°49'0 0.0
2018-May-10 20:00N 35°29' E 139°49'0 0.0
2018-May-10 19:30N 35°29' E 139°49'0 0.0
2018-May-10 19:00N 35°29' E 139°49'0 0.0
2018-May-10 18:30N 35°29' E 139°49'0 0.0
2018-May-10 18:00N 35°29' E 139°49'  
Track history (hours):
 
Tides and Currents Weather Stations Pressure Air Temp Water Temp Dewpoint Dewpoint Depression Visibility Wind Speed Wind Dir Waves Ship Positions

Satsuki

Last reported at 2018-May-20 17:48 UTC. Time now 2018-May-21 12:39 UTC.
Position N 33°51' E 135°03'.

Length 64 m; draft 4.4 m.

Type: Tanker. MMSI: 431007429.

Date/timePositionNaut miles runAvg speedWind from/ knotsBaromVisibWave heightAir tempDewpointWater temp
2018-May-20 17:48N 33°51' E 135°03'411.5
2018-May-20 17:30N 33°54' E 135°01'611.9
2018-May-20 17:00N 33°59' E 135°00'611.4
2018-May-20 16:30N 34°05' E 134°60'611.2
2018-May-20 16:00N 34°11' E 134°59'510.5
2018-May-20 15:30N 34°16' E 134°59'4 8.4
2018-May-20 15:00N 34°20' E 134°60'510.4
2018-May-20 14:30N 34°25' E 135°01'510.3
2018-May-20 14:00N 34°30' E 135°02'5 9.5
2018-May-20 13:30N 34°35' E 135°03'8 7.1
2018-May-20 12:22N 34°34' E 134°53'510.8
2018-May-20 11:57N 34°33' E 134°48'511.4
2018-May-20 11:29N 34°31' E 134°42'611.9
2018-May-20 11:00N 34°29' E 134°35'612.0
2018-May-20 10:30N 34°26' E 134°29'9 0.3
2018-May-19 01:34N 34°23' E 134°18'211.4
2018-May-19 01:25N 34°22' E 134°20'511.2
2018-May-19 01:01N 34°21' E 134°25'711.1
2018-May-19 00:22N 34°18' E 134°33'711.0
2018-May-18 23:45N 34°14' E 134°39'411.0
2018-May-18 23:23N 34°10' E 134°42'510.6
2018-May-18 22:55N 34°07' E 134°46'410.0
2018-May-18 22:31N 34°03' E 134°49'6 9.9
2018-May-18 21:52N 33°59' E 134°54'3 9.4
2018-May-18 21:31N 33°56' E 134°57'5 9.2
2018-May-18 21:00N 33°53' E 135°00'  
2018-May-15 15:04N 34°47' E 139°08'111.4
2018-May-15 15:00N 34°48' E 139°09'611.5
2018-May-15 14:29N 34°53' E 139°13'510.9
2018-May-15 14:00N 34°56' E 139°18'5 9.7
2018-May-15 13:30N 34°59' E 139°23'510.0
2018-May-15 13:00N 35°01' E 139°28'510.4
2018-May-15 12:31N 35°04' E 139°33'611.4
2018-May-15 12:00N 35°06' E 139°40'611.2
2018-May-15 11:30N 35°10' E 139°45'611.2
2018-May-15 11:01N 35°16' E 139°46'612.1
2018-May-15 10:31N 35°21' E 139°42'510.8
2018-May-15 10:00N 35°26' E 139°45'611.1
2018-May-15 09:30N 35°29' E 139°51'610.9
2018-May-15 09:00N 35°31' E 139°57'5 9.2
2018-May-15 08:30N 35°30' E 140°02'0 0.0
2018-May-15 08:00N 35°30' E 140°02'0 0.0
2018-May-15 06:12N 35°30' E 140°02'0 0.7
2018-May-15 06:00N 35°31' E 140°03'1 2.6
2018-May-15 05:30N 35°31' E 140°01'1 2.9
2018-May-15 05:00N 35°31' E 139°59'4 8.1
2018-May-15 04:30N 35°29' E 139°55'0 0.1
2018-May-15 03:55N 35°29' E 139°55'0 0.0
2018-May-15 03:28N 35°29' E 139°55'0 0.0
2018-May-15 02:49N 35°29' E 139°55'0 0.1
2018-May-15 02:28N 35°29' E 139°55'0 0.1
2018-May-15 01:58N 35°29' E 139°55'0 0.0
2018-May-15 01:19N 35°29' E 139°55'0 0.0
2018-May-15 00:52N 35°29' E 139°55'0 0.0
2018-May-15 00:19N 35°29' E 139°55'0 0.0
2018-May-14 23:58N 35°29' E 139°55'0 0.0
2018-May-14 23:25N 35°29' E 139°55'0 0.0
2018-May-14 22:58N 35°29' E 139°55'0 0.0
2018-May-14 22:28N 35°29' E 139°55'0 0.0
2018-May-14 21:55N 35°29' E 139°55'0 0.0
2018-May-14 21:22N 35°29' E 139°55'0 0.0
2018-May-14 20:58N 35°29' E 139°55'0 0.0
2018-May-14 20:28N 35°29' E 139°55'0 0.1
2018-May-14 19:49N 35°29' E 139°55'0 0.0
2018-May-14 19:28N 35°29' E 139°55'0 0.1
2018-May-14 18:58N 35°29' E 139°55'0 0.0
2018-May-14 18:25N 35°29' E 139°55'0 0.0
2018-May-14 17:52N 35°29' E 139°55'0 0.0
2018-May-14 17:28N 35°29' E 139°55'0 0.0
2018-May-14 16:55N 35°29' E 139°55'0 0.0
2018-May-14 16:25N 35°29' E 139°55'0 0.0
2018-May-14 15:58N 35°29' E 139°55'0 0.0
2018-May-14 15:28N 35°29' E 139°55'0 0.0
2018-May-14 14:58N 35°29' E 139°55'0 0.0
2018-May-14 14:28N 35°29' E 139°55'0 0.1
2018-May-14 13:58N 35°29' E 139°55'0 0.0
2018-May-14 13:28N 35°29' E 139°55'0 0.1
2018-May-14 12:58N 35°29' E 139°55'2 4.8
2018-May-14 12:30N 35°29' E 139°52'510.8
2018-May-14 12:01N 35°25' E 139°47'510.8
2018-May-14 11:30N 35°20' E 139°44'5 9.7
2018-May-14 11:00N 35°16' E 139°47'510.7
2018-May-14 10:30N 35°10' E 139°47'612.0
2018-May-14 10:00N 35°05' E 139°45'611.5
2018-May-14 09:30N 34°59' E 139°44'5 9.4
2018-May-14 09:00N 34°54' E 139°46'13 9.9
2018-May-14 07:40N 34°56' E 140°02'311.6
2018-May-14 07:22N 34°58' E 140°06'27 0.7
2018-May-12 17:57N 35°15' E 140°32'614.0
2018-May-12 17:29N 35°10' E 140°27'814.1
2018-May-12 16:55N 35°05' E 140°19'612.8
2018-May-12 16:29N 35°01' E 140°14'612.5
2018-May-12 16:00N 34°59' E 140°07'612.8
2018-May-12 15:30N 34°55' E 140°01'812.4
2018-May-12 14:51N 34°51' E 139°52'411.9
2018-May-12 14:30N 34°52' E 139°47'612.9
2018-May-12 14:00N 34°58' E 139°43'611.7
2018-May-12 13:30N 35°03' E 139°45'611.5
2018-May-12 13:00N 35°09' E 139°46'611.3
2018-May-12 12:30N 35°15' E 139°46'611.6
2018-May-12 12:00N 35°20' E 139°43'611.1
2018-May-12 11:30N 35°25' E 139°44'611.5
2018-May-12 11:00N 35°28' E 139°50'510.8
2018-May-12 10:30N 35°30' E 139°56'5 9.7
2018-May-12 10:00N 35°30' E 140°02'0 0.0
2018-May-12 09:29N 35°30' E 140°02'0 0.0
2018-May-12 04:17N 35°30' E 140°02'0 0.5
2018-May-12 04:00N 35°30' E 140°02'2 3.1
2018-May-12 03:30N 35°30' E 139°60'2 3.5
2018-May-12 02:59N 35°28' E 140°01'0 0.0
2018-May-12 02:30N 35°28' E 140°01'0 0.0
2018-May-12 01:59N 35°28' E 140°01'0 0.0
2018-May-12 01:29N 35°28' E 140°01'0 0.0
2018-May-12 00:57N 35°28' E 140°01'0 0.0
2018-May-12 00:30N 35°28' E 140°01'0 0.0
2018-May-11 23:59N 35°28' E 140°01'0 0.0
2018-May-11 23:30N 35°28' E 140°01'2 4.1
2018-May-11 23:00N 35°30' E 139°59'3 4.8
2018-May-11 22:27N 35°29' E 139°56'0 0.0
2018-May-11 21:54N 35°29' E 139°56'0 0.0
2018-May-11 21:30N 35°29' E 139°56'0 0.0
2018-May-11 21:00N 35°29' E 139°56'0 0.0
2018-May-11 20:27N 35°29' E 139°56'0 0.0
2018-May-11 20:00N 35°29' E 139°56'0 0.0
2018-May-11 19:30N 35°29' E 139°56'0 0.1
2018-May-11 19:00N 35°29' E 139°56'0 0.0
2018-May-11 18:30N 35°29' E 139°56'0 0.0
2018-May-11 17:57N 35°29' E 139°56'0 0.0
2018-May-11 17:27N 35°29' E 139°56'0 0.0
2018-May-11 16:57N 35°29' E 139°56'0 0.0
2018-May-11 16:27N 35°29' E 139°56'0 0.0
2018-May-11 15:51N 35°29' E 139°56'0 0.0
2018-May-11 15:30N 35°29' E 139°56'0 0.0
2018-May-11 15:00N 35°29' E 139°56'0 0.0
2018-May-11 14:30N 35°29' E 139°56'0 0.0
2018-May-11 14:00N 35°29' E 139°56'0 0.0
2018-May-11 13:27N 35°29' E 139°56'0 0.0
2018-May-11 12:57N 35°29' E 139°56'0 0.1
2018-May-11 12:30N 35°29' E 139°56'0 0.1
2018-May-11 12:00N 35°29' E 139°56'0 0.1
2018-May-11 11:27N 35°29' E 139°56'0 0.0
2018-May-11 11:00N 35°29' E 139°56'0 0.0
2018-May-11 10:24N 35°29' E 139°56'0 0.0
2018-May-11 09:57N 35°29' E 139°56'0 0.0
2018-May-11 09:30N 35°29' E 139°56'0 0.0
2018-May-11 09:00N 35°29' E 139°56'0 0.0
2018-May-11 08:18N 35°29' E 139°56'0 0.0
2018-May-11 08:00N 35°29' E 139°56'0 0.0
2018-May-11 07:30N 35°29' E 139°56'0 0.0
2018-May-11 06:57N 35°29' E 139°56'0 0.0
2018-May-11 06:27N 35°29' E 139°56'0 0.0
2018-May-11 05:51N 35°29' E 139°56'0 0.0
2018-May-11 05:30N 35°29' E 139°56'2 4.2
2018-May-11 05:00N 35°30' E 139°53'611.8
2018-May-11 04:30N 35°31' E 139°46'1 2.5
2018-May-11 04:00N 35°32' E 139°45'0 0.0
2018-May-11 03:30N 35°32' E 139°45'0 0.0
2018-May-11 02:57N 35°32' E 139°45'0 0.0
2018-May-11 02:24N 35°32' E 139°45'0 0.0
2018-May-11 02:00N 35°32' E 139°45'0 0.0
2018-May-11 01:30N 35°32' E 139°45'0 0.0
2018-May-11 00:57N 35°32' E 139°45'0 0.0
2018-May-11 00:15N 35°32' E 139°45'0 0.0
2018-May-11 00:00N 35°32' E 139°45'0 0.0
2018-May-10 23:30N 35°32' E 139°45'1 2.4
2018-May-10 23:00N 35°31' E 139°46'3 5.8
2018-May-10 22:30N 35°29' E 139°49'0 0.0
2018-May-10 22:00N 35°29' E 139°49'0 0.0
2018-May-10 21:30N 35°29' E 139°49'0 0.0
2018-May-10 20:57N 35°29' E 139°49'0 0.0
2018-May-10 20:30N 35°29' E 139°49'0 0.0
2018-May-10 20:00N 35°29' E 139°49'0 0.0
2018-May-10 19:30N 35°29' E 139°49'0 0.0
2018-May-10 19:00N 35°29' E 139°49'0 0.0
2018-May-10 18:30N 35°29' E 139°49'0 0.0
2018-May-10 18:00N 35°29' E 139°49'  

Dump ship's entire track history